Robore, Bolivia
Current Conditions -  °F | °C
As of 2:00 PM on Thursday 30 Oct 2014 (Local Time) from SLPS Reporting Station
Scattered Clouds Scattered Clouds  
Wind Chill: 97°   Ceiling: Unl
Heat Index: 107°   Visibility: 6mi
Dew Point: 73°   Wind: 12mph
Humidity: 47%   Direction: 20°NNE
Pressure: 29.65"   Gusts: NA
Location:  18.33°S, 59.76°W
Report Text: SLPS 301800Z 02010KT 9999 SCT020 FEW027TCU 36/23 Q1004
Loading
Personal Weather Stations






























Interactive Weather Map
Tropical Storm Tracking
New forecast layout! Learn more

10-Day Weather Forecast

Advertisements
Track Severe Weather on mobile